createdAt,value
2024-04-22T00:00:57.055Z,94446.13
2024-04-22T00:03:23.709Z,94449.47
2024-04-22T00:05:54.196Z,94445.91
2024-04-22T00:08:20.875Z,94440.97
2024-04-22T00:10:47.522Z,94446.59
2024-04-22T00:13:14.154Z,94454.78
2024-04-22T00:15:40.784Z,94444.50
2024-04-22T00:18:07.451Z,94444.81
2024-04-22T00:20:34.125Z,94445.34
2024-04-22T00:23:00.691Z,94441.75
2024-04-22T00:25:27.295Z,94445.34
2024-04-22T00:27:53.916Z,94447.13
2024-04-22T00:30:20.503Z,94445.53
2024-04-22T00:32:47.176Z,94449.56
2024-04-22T00:35:13.785Z,94443.16
2024-04-22T00:37:40.635Z,94444.50
2024-04-22T00:40:07.929Z,94439.34
2024-04-22T00:42:34.592Z,94441.13
2024-04-22T00:45:01.177Z,94437.81
2024-04-22T00:47:27.968Z,94439.34
2024-04-22T00:49:54.961Z,94441.38
2024-04-22T00:52:21.699Z,94436.22
2024-04-22T00:54:48.460Z,94431.25
2024-04-22T00:57:17.071Z,94440.53
2024-04-22T00:59:44.111Z,94443.84
2024-04-22T01:02:10.904Z,94439.63
2024-04-22T01:04:37.837Z,94436.81
2024-04-22T01:07:05.322Z,94439.16
2024-04-22T01:09:31.937Z,94440.16
2024-04-22T01:11:58.685Z,94447.88
2024-04-22T01:14:25.446Z,94438.00
2024-04-22T01:16:55.815Z,94435.09
2024-04-22T01:19:23.491Z,94427.63
2024-04-22T01:21:54.098Z,94437.47
2024-04-22T01:24:20.805Z,94436.91
2024-04-22T01:26:49.167Z,94437.94
2024-04-22T01:29:16.409Z,94439.41
2024-04-22T01:31:43.025Z,94437.00
2024-04-22T01:34:09.666Z,94430.75
2024-04-22T01:36:41.907Z,94430.75
2024-04-22T01:39:11.539Z,94427.97
2024-04-22T01:41:38.153Z,94441.06
2024-04-22T01:44:04.898Z,94432.00
2024-04-22T01:46:31.837Z,94428.91
2024-04-22T01:48:58.572Z,94430.38
2024-04-22T01:51:25.147Z,94423.75
2024-04-22T01:53:51.912Z,94429.22
2024-04-22T01:56:18.479Z,94422.75
2024-04-22T01:58:46.144Z,94418.16
2024-04-22T02:01:13.000Z,94415.50
2024-04-22T02:03:39.694Z,94419.34
2024-04-22T02:06:06.359Z,94412.38
2024-04-22T02:08:33.319Z,94415.97
2024-04-22T02:10:59.995Z,94406.75
2024-04-22T02:13:26.809Z,94413.41
2024-04-22T02:15:53.449Z,94414.34
2024-04-22T02:18:20.075Z,94407.41
2024-04-22T02:20:46.669Z,94407.63
2024-04-22T02:23:13.585Z,94414.56
2024-04-22T02:25:41.007Z,94424.09
2024-04-22T02:28:07.863Z,94421.50
2024-04-22T02:30:34.470Z,94420.25
2024-04-22T02:33:01.132Z,94421.59
2024-04-22T02:35:27.955Z,94422.38
2024-04-22T02:37:54.545Z,94418.94
2024-04-22T02:40:21.143Z,94418.69
2024-04-22T02:42:47.956Z,94415.91
2024-04-22T02:45:14.615Z,94415.34
2024-04-22T02:47:41.373Z,94401.16
2024-04-22T02:50:08.184Z,94414.66
2024-04-22T02:52:34.865Z,94410.50
2024-04-22T02:55:01.633Z,94406.16
2024-04-22T02:57:28.271Z,94406.63
2024-04-22T02:59:54.851Z,94403.97
2024-04-22T03:02:21.523Z,94398.31
2024-04-22T03:04:51.662Z,94403.44
2024-04-22T03:07:18.289Z,94404.91
2024-04-22T03:09:45.700Z,94402.28
2024-04-22T03:12:13.258Z,94395.25
2024-04-22T03:14:40.132Z,94408.66
2024-04-22T03:17:06.809Z,94406.63
2024-04-22T03:19:33.562Z,94404.06
2024-04-22T03:22:00.196Z,94401.25
2024-04-22T03:24:26.790Z,94403.06
2024-04-22T03:26:53.460Z,94399.91
2024-04-22T03:29:20.016Z,94397.59
2024-04-22T03:31:46.734Z,94396.94
2024-04-22T03:34:13.458Z,94397.53
2024-04-22T03:36:40.109Z,94401.09
2024-04-22T03:39:06.699Z,94394.47
2024-04-22T03:41:33.284Z,94390.09
2024-04-22T03:43:59.867Z,94390.88
2024-04-22T03:46:44.869Z,94395.25
2024-04-22T03:49:30.224Z,94392.44
2024-04-22T03:51:56.800Z,94401.94
2024-04-22T03:54:23.415Z,94404.19
2024-04-22T03:56:49.979Z,94396.50
2024-04-22T03:59:16.559Z,94399.38
2024-04-22T04:01:43.807Z,94395.25
2024-04-22T04:04:10.655Z,94397.34
2024-04-22T04:06:37.291Z,94393.53
2024-04-22T04:09:03.902Z,94392.78
2024-04-22T04:11:37.641Z,94394.94
2024-04-22T04:14:08.540Z,94390.19
2024-04-22T04:16:36.036Z,94392.44
2024-04-22T04:19:03.724Z,94390.88
2024-04-22T04:21:30.359Z,94389.56
2024-04-22T04:23:56.986Z,94391.13
2024-04-22T04:26:23.643Z,94397.19
2024-04-22T04:28:50.971Z,94393.53
2024-04-22T04:31:18.820Z,94398.69
2024-04-22T04:33:45.666Z,94396.78
2024-04-22T04:36:12.295Z,94399.59
2024-04-22T04:38:39.136Z,94404.75
2024-04-22T04:41:05.747Z,94402.84
2024-04-22T04:43:33.227Z,94406.59
2024-04-22T04:46:00.518Z,94403.38
2024-04-22T04:48:27.329Z,94410.31
2024-04-22T04:50:54.151Z,94412.63
2024-04-22T04:53:22.486Z,94414.75
2024-04-22T04:55:49.589Z,94404.38
2024-04-22T04:58:16.754Z,94405.78
2024-04-22T05:00:43.538Z,94415.41
2024-04-22T05:03:10.451Z,94414.84
2024-04-22T05:05:37.087Z,94415.41
2024-04-22T05:08:05.138Z,94413.91
2024-04-22T05:10:31.988Z,94410.41
2024-04-22T05:12:58.683Z,94411.03
2024-04-22T05:15:26.132Z,94420.84
2024-04-22T05:17:52.848Z,94413.47
2024-04-22T05:20:19.549Z,94412.56
2024-04-22T05:22:46.223Z,94421.91
2024-04-22T05:25:12.966Z,94421.28
2024-04-22T05:27:39.602Z,94420.88
2024-04-22T05:30:06.791Z,94425.09
2024-04-22T05:32:33.880Z,94424.31
2024-04-22T05:35:19.329Z,94433.13
2024-04-22T05:37:45.995Z,94434.38
2024-04-22T05:40:12.620Z,94438.47
2024-04-22T05:42:39.353Z,94433.66
2024-04-22T05:45:06.234Z,94437.22
2024-04-22T05:47:32.922Z,94432.41
2024-04-22T05:50:01.243Z,94431.88
2024-04-22T05:52:28.527Z,94430.63
2024-04-22T05:54:55.480Z,94429.38
2024-04-22T05:57:22.395Z,94432.66
2024-04-22T05:59:49.094Z,94432.88
2024-04-22T06:02:15.728Z,94440.59
2024-04-22T06:04:42.407Z,94432.88
2024-04-22T06:07:09.208Z,94437.47
2024-04-22T06:09:35.864Z,94439.44
2024-04-22T06:12:11.640Z,94440.97
2024-04-22T06:14:44.445Z,94447.91
2024-04-22T06:17:11.220Z,94443.09
2024-04-22T06:19:38.191Z,94449.09
2024-04-22T06:22:04.831Z,94448.94
2024-04-22T06:24:33.053Z,94447.69
2024-04-22T06:26:59.699Z,94444.81
2024-04-22T06:29:26.261Z,94443.81
2024-04-22T06:31:52.938Z,94438.34
2024-04-22T06:34:19.592Z,94444.94
2024-04-22T06:36:46.234Z,94449.63
2024-04-22T06:39:12.823Z,94452.97
2024-04-22T06:41:39.511Z,94442.63
2024-04-22T06:44:06.308Z,94444.94
2024-04-22T06:46:33.720Z,94447.38
2024-04-22T06:49:00.487Z,94450.72
2024-04-22T06:51:27.065Z,94452.97
2024-04-22T06:53:53.669Z,94444.47
2024-04-22T06:56:20.338Z,94456.09
2024-04-22T06:58:47.026Z,94457.72
2024-04-22T07:01:23.911Z,94458.84
2024-04-22T07:03:59.118Z,94446.78
2024-04-22T07:06:25.935Z,94448.56
2024-04-22T07:08:52.685Z,94451.41
2024-04-22T07:11:19.468Z,94448.38
2024-04-22T07:13:46.189Z,94451.06
2024-04-22T07:16:15.239Z,94452.53
2024-04-22T07:18:41.996Z,94454.16
2024-04-22T07:21:08.601Z,94452.72
2024-04-22T07:23:35.247Z,94451.84
2024-04-22T07:26:05.425Z,94456.31
2024-04-22T07:28:32.814Z,94450.44
2024-04-22T07:30:59.740Z,94457.94
2024-04-22T07:33:30.846Z,94457.69
2024-04-22T07:36:15.279Z,94457.84
2024-04-22T07:38:44.478Z,94459.47
2024-04-22T07:41:11.332Z,94456.66
2024-04-22T07:43:37.943Z,94460.97
2024-04-22T07:46:04.762Z,94458.88
2024-04-22T07:48:31.358Z,94465.03
2024-04-22T07:50:57.965Z,94469.38
2024-04-22T07:53:24.763Z,94466.81
2024-04-22T07:55:51.730Z,94474.25
2024-04-22T07:58:18.647Z,94475.19
2024-04-22T08:00:45.829Z,94478.59
2024-04-22T08:03:12.671Z,94474.25
2024-04-22T08:05:39.617Z,94480.94
2024-04-22T08:08:07.146Z,94485.13
2024-04-22T08:10:33.859Z,94479.75
2024-04-22T08:13:00.454Z,94478.59
2024-04-22T08:15:27.588Z,94479.38
2024-04-22T08:17:54.277Z,94485.28
2024-04-22T08:20:20.964Z,94482.31
2024-04-22T08:22:47.643Z,94485.63
2024-04-22T08:25:14.494Z,94490.28
2024-04-22T08:27:43.094Z,94492.41
2024-04-22T08:30:10.446Z,94490.41
2024-04-22T08:32:38.170Z,94488.94
2024-04-22T08:35:05.261Z,94494.88
2024-04-22T08:37:32.011Z,94493.06
2024-04-22T08:39:58.883Z,94489.94
2024-04-22T08:42:25.645Z,94496.25
2024-04-22T08:44:53.508Z,94499.44
2024-04-22T08:47:20.849Z,94496.94
2024-04-22T08:49:47.581Z,94497.53
2024-04-22T08:52:16.105Z,94497.06
2024-04-22T08:54:42.863Z,94500.16
2024-04-22T08:57:09.572Z,94501.47
2024-04-22T08:59:40.465Z,94502.81
2024-04-22T09:02:08.594Z,94508.00
2024-04-22T09:04:35.572Z,94495.22
2024-04-22T09:07:06.547Z,94505.09
2024-04-22T09:09:42.478Z,94495.97
2024-04-22T09:12:20.057Z,94485.22
2024-04-22T09:14:47.153Z,94493.03
2024-04-22T09:17:20.401Z,94494.72
2024-04-22T09:19:47.991Z,94485.22
2024-04-22T09:22:16.565Z,94486.34
2024-04-22T09:24:46.085Z,94486.59
2024-04-22T09:27:12.870Z,94481.88
2024-04-22T09:29:43.827Z,94477.19
2024-04-22T09:32:14.631Z,94475.28
2024-04-22T09:34:43.357Z,94466.09
2024-04-22T09:37:10.964Z,94458.75
2024-04-22T09:39:39.020Z,94461.19
2024-04-22T09:42:06.110Z,94459.16
2024-04-22T09:44:34.154Z,94453.50
2024-04-22T09:47:01.737Z,94456.66
2024-04-22T09:49:31.220Z,94457.44
2024-04-22T09:52:00.996Z,94454.81
2024-04-22T09:54:27.761Z,94462.88
2024-04-22T09:56:54.932Z,94459.19
2024-04-22T09:59:21.998Z,94459.66
2024-04-22T10:01:48.886Z,94449.78
2024-04-22T10:04:16.328Z,94446.13
2024-04-22T10:06:43.447Z,94447.16
2024-04-22T10:09:16.481Z,94443.47
2024-04-22T10:11:44.398Z,94449.41
2024-04-22T10:14:13.170Z,94442.88
2024-04-22T10:16:40.389Z,94449.09
2024-04-22T10:19:10.012Z,94440.81
2024-04-22T10:21:43.542Z,94440.34
2024-04-22T10:24:10.164Z,94433.09
2024-04-22T10:26:52.622Z,94440.06
2024-04-22T10:29:23.664Z,94421.19
2024-04-22T10:31:50.722Z,94425.81
2024-04-22T10:34:17.492Z,94426.28
2024-04-22T10:36:44.145Z,94415.81
2024-04-22T10:39:10.743Z,94406.66
2024-04-22T10:41:37.400Z,94419.34
2024-04-22T10:44:04.500Z,94396.13
2024-04-22T10:46:31.226Z,94394.97
2024-04-22T10:48:58.104Z,94396.44
2024-04-22T10:51:24.764Z,94396.13
2024-04-22T10:53:55.494Z,94397.34
2024-04-22T10:56:23.220Z,94395.84
2024-04-22T10:58:52.119Z,94390.81
2024-04-22T11:01:20.051Z,94387.47
2024-04-22T11:03:47.001Z,94386.03
2024-04-22T11:06:14.529Z,94387.94
2024-04-22T11:08:42.769Z,94390.25
2024-04-22T11:11:10.208Z,94380.41
2024-04-22T11:13:38.740Z,94381.88
2024-04-22T11:16:11.202Z,94377.94
2024-04-22T11:18:39.044Z,94383.56
2024-04-22T11:21:06.200Z,94384.66
2024-04-22T11:23:33.534Z,94387.41
2024-04-22T11:26:00.460Z,94384.13
2024-04-22T11:28:27.172Z,94383.41
2024-04-22T11:30:55.451Z,94367.09
2024-04-22T11:33:25.667Z,94382.00
2024-04-22T11:35:52.482Z,94379.53
2024-04-22T11:38:19.362Z,94391.19
2024-04-22T11:40:46.330Z,94389.53
2024-04-22T11:43:13.818Z,94389.66
2024-04-22T11:45:41.336Z,94381.97
2024-04-22T11:48:08.437Z,94370.06
2024-04-22T11:50:38.205Z,94376.28
2024-04-22T11:53:14.710Z,94372.63
2024-04-22T11:55:47.935Z,94356.25
2024-04-22T11:58:14.813Z,94358.94
2024-04-22T12:00:41.583Z,94367.38
2024-04-22T12:03:08.560Z,94366.56
2024-04-22T12:05:35.628Z,94357.50
2024-04-22T12:08:02.357Z,94357.91
2024-04-22T12:10:29.212Z,94359.25
2024-04-22T12:12:55.780Z,94366.34
2024-04-22T12:15:22.464Z,94351.97
2024-04-22T12:17:49.073Z,94360.31
2024-04-22T12:20:16.267Z,94355.41
2024-04-22T12:22:42.925Z,94347.09
2024-04-22T12:25:09.527Z,94342.63
2024-04-22T12:27:36.219Z,94356.88
2024-04-22T12:30:02.858Z,94353.22
2024-04-22T12:32:31.198Z,94353.47
2024-04-22T12:35:01.191Z,94347.47
2024-04-22T12:37:27.829Z,94346.69
2024-04-22T12:39:54.422Z,94349.03
2024-04-22T12:42:21.120Z,94349.34
2024-04-22T12:44:47.837Z,94337.75
2024-04-22T12:47:33.123Z,94354.66
2024-04-22T12:50:18.498Z,94345.66
2024-04-22T12:52:45.204Z,94345.94
2024-04-22T12:55:12.411Z,94346.28
2024-04-22T12:57:39.267Z,94337.50
2024-04-22T13:00:13.605Z,94340.63
2024-04-22T13:02:40.788Z,94335.72
2024-04-22T13:05:07.523Z,94341.47
2024-04-22T13:07:34.231Z,94340.44
2024-04-22T13:10:00.890Z,94331.09
2024-04-22T13:12:27.997Z,94331.56
2024-04-22T13:14:54.696Z,94324.78
2024-04-22T13:17:21.466Z,94324.47
2024-04-22T13:19:48.192Z,94326.75
2024-04-22T13:22:15.154Z,94326.91
2024-04-22T13:24:41.841Z,94325.00
2024-04-22T13:27:11.288Z,94322.16
2024-04-22T13:29:37.862Z,94325.25
2024-04-22T13:32:05.041Z,94320.13
2024-04-22T13:34:32.100Z,94318.34
2024-04-22T13:36:58.757Z,94322.25
2024-04-22T13:39:25.980Z,94317.06
2024-04-22T13:41:53.381Z,94316.84
2024-04-22T13:44:20.089Z,94319.47
2024-04-22T13:46:46.926Z,94316.16
2024-04-22T13:49:15.238Z,94318.53
2024-04-22T13:51:42.304Z,94322.44
2024-04-22T13:54:09.572Z,94310.28
2024-04-22T13:56:36.723Z,94311.66
2024-04-22T13:59:03.962Z,94319.69
2024-04-22T14:01:31.234Z,94310.16
2024-04-22T14:03:58.013Z,94304.75
2024-04-22T14:06:24.672Z,94317.69
2024-04-22T14:08:51.535Z,94315.34
2024-04-22T14:11:18.418Z,94308.84
2024-04-22T14:13:45.425Z,94311.41
2024-04-22T14:16:12.157Z,94308.78
2024-04-22T14:18:38.825Z,94307.75
2024-04-22T14:21:05.614Z,94308.31
2024-04-22T14:23:32.233Z,94309.59
2024-04-22T14:26:00.417Z,94303.16
2024-04-22T14:28:28.525Z,94304.19
2024-04-22T14:30:55.940Z,94308.88
2024-04-22T14:33:23.887Z,94309.41
2024-04-22T14:35:51.190Z,94316.16
2024-04-22T14:38:17.906Z,94311.50
2024-04-22T14:40:44.707Z,94315.94
2024-04-22T14:43:11.478Z,94310.78
2024-04-22T14:45:38.370Z,94299.91
2024-04-22T14:48:05.552Z,94310.25
2024-04-22T14:50:32.194Z,94308.16
2024-04-22T14:53:01.417Z,94308.66
2024-04-22T14:55:29.468Z,94312.53
2024-04-22T14:57:56.163Z,94304.47
2024-04-22T15:00:22.797Z,94305.47
2024-04-22T15:02:50.135Z,94309.81
2024-04-22T15:05:16.994Z,94300.22
2024-04-22T15:07:43.654Z,94300.00
2024-04-22T15:10:10.318Z,94309.31
2024-04-22T15:12:37.070Z,94302.38
2024-04-22T15:15:03.886Z,94287.44
2024-04-22T15:17:30.656Z,94307.63
2024-04-22T15:19:57.522Z,94301.44
2024-04-22T15:22:24.331Z,94302.19
2024-04-22T15:24:50.908Z,94295.22
2024-04-22T15:27:17.576Z,94300.91
2024-04-22T15:29:44.206Z,94292.34
2024-04-22T15:32:10.923Z,94294.97
2024-04-22T15:34:39.696Z,94289.84
2024-04-22T15:37:06.642Z,94291.94
2024-04-22T15:39:33.569Z,94291.66
2024-04-22T15:42:00.252Z,94295.03
2024-04-22T15:44:26.807Z,94289.84
2024-04-22T15:46:54.311Z,94286.22
2024-04-22T15:49:21.098Z,94286.72
2024-04-22T15:51:47.677Z,94292.44
2024-04-22T15:54:14.274Z,94290.34
2024-04-22T15:56:42.357Z,94292.94
2024-04-22T15:59:09.352Z,94289.56
2024-04-22T16:01:36.740Z,94285.44
2024-04-22T16:04:03.788Z,94289.06
2024-04-22T16:06:30.524Z,94288.31
2024-04-22T16:08:57.138Z,94284.72
2024-04-22T16:11:23.743Z,94288.31
2024-04-22T16:13:50.532Z,94285.72
2024-04-22T16:16:17.183Z,94285.47
2024-04-22T16:18:43.801Z,94279.53
2024-04-22T16:21:15.366Z,94283.94
2024-04-22T16:23:44.193Z,94285.50
2024-04-22T16:26:11.433Z,94268.69
2024-04-22T16:28:38.212Z,94276.19
2024-04-22T16:31:05.007Z,94268.69
2024-04-22T16:33:31.684Z,94269.19
2024-04-22T16:35:58.370Z,94274.91
2024-04-22T16:38:25.128Z,94273.88
2024-04-22T16:40:51.955Z,94276.47
2024-04-22T16:43:21.378Z,94277.50
2024-04-22T16:45:48.503Z,94272.84
2024-04-22T16:48:15.435Z,94264.31
2024-04-22T16:50:42.695Z,94278.53
2024-04-22T16:53:09.356Z,94273.38
2024-04-22T16:55:36.088Z,94269.75
2024-04-22T16:58:02.887Z,94272.84
2024-04-22T17:00:29.896Z,94274.41
2024-04-22T17:02:56.538Z,94262.78
2024-04-22T17:05:23.159Z,94263.56
2024-04-22T17:07:49.988Z,94257.59
2024-04-22T17:10:18.988Z,94267.97
2024-04-22T17:12:45.808Z,94265.38
2024-04-22T17:15:12.689Z,94268.50
2024-04-22T17:17:39.520Z,94261.47
2024-04-22T17:20:06.955Z,94262.56
2024-04-22T17:22:33.565Z,94262.03
2024-04-22T17:25:00.247Z,94264.38
2024-04-22T17:27:27.003Z,94261.81
2024-04-22T17:29:53.816Z,94265.13
2024-04-22T17:32:20.573Z,94262.03
2024-04-22T17:34:47.690Z,94271.63
2024-04-22T17:37:19.061Z,94271.88
2024-04-22T17:39:49.637Z,94270.09
2024-04-22T17:42:16.227Z,94275.00
2024-04-22T17:44:48.378Z,94261.03
2024-04-22T17:47:15.149Z,94273.97
2024-04-22T17:49:41.784Z,94271.66
2024-04-22T17:52:08.399Z,94276.84
2024-04-22T17:54:35.013Z,94276.06
2024-04-22T17:57:06.848Z,94277.59
2024-04-22T17:59:34.318Z,94272.69
2024-04-22T18:02:00.898Z,94275.00
2024-04-22T18:04:27.736Z,94276.53
2024-04-22T18:06:54.395Z,94278.34
2024-04-22T18:09:21.055Z,94278.06
2024-04-22T18:11:47.799Z,94274.94
2024-04-22T18:14:14.419Z,94284.25
2024-04-22T18:16:42.342Z,94281.41
2024-04-22T18:19:09.094Z,94274.41
2024-04-22T18:21:35.748Z,94287.06
2024-04-22T18:24:05.184Z,94273.88
2024-04-22T18:26:34.055Z,94279.03
2024-04-22T18:29:01.066Z,94273.34
2024-04-22T18:31:27.757Z,94286.53
2024-04-22T18:33:54.351Z,94285.47
2024-04-22T18:36:20.915Z,94280.53
2024-04-22T18:38:48.974Z,94281.06
2024-04-22T18:41:15.914Z,94285.97
2024-04-22T18:43:42.675Z,94281.84
2024-04-22T18:46:09.683Z,94285.47
2024-04-22T18:48:36.466Z,94283.09
2024-04-22T18:51:03.337Z,94279.75
2024-04-22T18:53:30.172Z,94284.38
2024-04-22T18:55:57.098Z,94284.13
2024-04-22T18:58:29.064Z,94292.38
2024-04-22T19:00:56.048Z,94292.88
2024-04-22T19:03:22.718Z,94296.22
2024-04-22T19:05:49.438Z,94297.28
2024-04-22T19:08:16.080Z,94302.44
2024-04-22T19:10:42.962Z,94296.22
2024-04-22T19:13:09.717Z,94306.28
2024-04-22T19:15:36.356Z,94302.13
2024-04-22T19:18:03.234Z,94314.03
2024-04-22T19:20:29.967Z,94309.13
2024-04-22T19:22:56.706Z,94314.53
2024-04-22T19:25:23.515Z,94313.50
2024-04-22T19:27:52.184Z,94315.31
2024-04-22T19:30:19.448Z,94319.72
2024-04-22T19:32:46.416Z,94316.59
2024-04-22T19:35:13.396Z,94315.03
2024-04-22T19:37:40.824Z,94314.53
2024-04-22T19:40:08.106Z,94312.44
2024-04-22T19:42:34.768Z,94317.59
2024-04-22T19:45:03.571Z,94323.56
2024-04-22T19:47:30.469Z,94322.25
2024-04-22T19:49:57.220Z,94316.28
2024-04-22T19:52:24.057Z,94315.00
2024-04-22T19:54:53.163Z,94315.25
2024-04-22T19:57:22.715Z,94313.44
2024-04-22T19:59:50.998Z,94316.53
2024-04-22T20:02:17.994Z,94310.06
2024-04-22T20:04:45.329Z,94310.25
2024-04-22T20:07:12.405Z,94301.22
2024-04-22T20:09:39.056Z,94310.25
2024-04-22T20:12:06.164Z,94320.03
2024-04-22T20:14:32.793Z,94314.59
2024-04-22T20:17:00.812Z,94306.06
2024-04-22T20:19:29.303Z,94307.13
2024-04-22T20:21:56.180Z,94311.22
2024-04-22T20:24:23.081Z,94310.94
2024-04-22T20:26:49.706Z,94307.03
2024-04-22T20:29:18.582Z,94317.09
2024-04-22T20:31:45.386Z,94320.69
2024-04-22T20:34:12.295Z,94321.69
2024-04-22T20:36:39.456Z,94315.75
2024-04-22T20:39:06.081Z,94312.91
2024-04-22T20:41:32.808Z,94321.41
2024-04-22T20:44:00.794Z,94314.94
2024-04-22T20:46:27.612Z,94311.03
2024-04-22T20:48:54.436Z,94313.13
2024-04-22T20:51:21.133Z,94314.44
2024-04-22T20:53:47.854Z,94313.91
2024-04-22T20:56:14.471Z,94315.19
2024-04-22T20:58:41.207Z,94306.94
2024-04-22T21:01:10.463Z,94305.84
2024-04-22T21:03:37.645Z,94294.16
2024-04-22T21:06:05.449Z,94300.88
2024-04-22T21:08:32.819Z,94300.34
2024-04-22T21:11:02.572Z,94305.75
2024-04-22T21:13:33.347Z,94303.19
2024-04-22T21:16:00.160Z,94304.44
2024-04-22T21:18:26.787Z,94298.00
2024-04-22T21:20:53.418Z,94302.09
2024-04-22T21:23:20.019Z,94300.56
2024-04-22T21:25:46.684Z,94299.53
2024-04-22T21:28:13.346Z,94304.16
2024-04-22T21:30:40.024Z,94298.00
2024-04-22T21:33:25.999Z,94298.75
2024-04-22T21:35:53.590Z,94295.41
2024-04-22T21:38:20.284Z,94297.44
2024-04-22T21:40:47.548Z,94289.19
2024-04-22T21:43:14.853Z,94293.28
2024-04-22T21:45:41.830Z,94293.22
2024-04-22T21:48:08.517Z,94296.31
2024-04-22T21:50:35.737Z,94288.53
2024-04-22T21:53:02.560Z,94288.00
2024-04-22T21:55:49.249Z,94291.06
2024-04-22T21:58:53.365Z,94293.59
2024-04-22T22:01:57.631Z,94290.19
2024-04-22T22:05:02.216Z,94292.44
2024-04-22T22:07:28.816Z,94299.03
2024-04-22T22:09:56.051Z,94295.63
2024-04-22T22:12:24.414Z,94298.72
2024-04-22T22:14:52.302Z,94301.00
2024-04-22T22:17:19.181Z,94291.47
2024-04-22T22:19:47.367Z,94293.25
2024-04-22T22:22:14.100Z,94293.50
2024-04-22T22:24:42.700Z,94286.81
2024-04-22T22:27:11.338Z,94292.75
2024-04-22T22:29:38.529Z,94289.13
2024-04-22T22:32:05.901Z,94285.53
2024-04-22T22:34:32.835Z,94287.84
2024-04-22T22:37:04.401Z,94284.50
2024-04-22T22:39:31.367Z,94286.03
2024-04-22T22:41:58.104Z,94280.34
2024-04-22T22:44:25.947Z,94278.78
2024-04-22T22:47:02.328Z,94280.88
2024-04-22T22:49:47.616Z,94281.34
2024-04-22T22:52:14.233Z,94284.94
2024-04-22T22:54:40.831Z,94274.91
2024-04-22T22:57:09.684Z,94268.44
2024-04-22T22:59:36.247Z,94270.47
2024-04-22T23:02:02.860Z,94266.59
2024-04-22T23:04:29.658Z,94273.75
2024-04-22T23:07:03.341Z,94272.41
2024-04-22T23:09:29.979Z,94262.59
2024-04-22T23:11:56.608Z,94261.81
2024-04-22T23:14:23.165Z,94264.63
2024-04-22T23:16:50.205Z,94262.28
2024-04-22T23:19:16.869Z,94258.97
2024-04-22T23:21:43.541Z,94261.22
2024-04-22T23:24:10.361Z,94261.44
2024-04-22T23:26:36.947Z,94253.16
2024-04-22T23:29:03.570Z,94259.78
2024-04-22T23:31:30.243Z,94243.53
2024-04-22T23:33:56.809Z,94252.56
2024-04-22T23:36:23.395Z,94251.00
2024-04-22T23:38:49.968Z,94245.88
2024-04-22T23:41:16.517Z,94249.69
2024-04-22T23:43:45.003Z,94235.53
2024-04-22T23:46:11.669Z,94238.88
2024-04-22T23:48:38.233Z,94229.59
2024-04-22T23:51:04.939Z,94235.53
2024-04-22T23:53:31.495Z,94228.59
2024-04-22T23:55:58.137Z,94227.81
2024-04-22T23:58:24.919Z,94221.56
